Bighill, Texas
Current Conditions -  °F | °C
As of 6:15 AM on Friday 28 Nov 2014 (Local Time) from KLXY Reporting Station
Clear Clear  
Wind Chill: 38°   Ceiling: Unl
Heat Index: 38°   Visibility: 10mi
Dew Point: 33°   Wind: 3mph
Humidity: 81%   Direction: 160°SSE
Pressure: 30.31"   Gusts: NA
Location:  31.4027°N, 96.4988°W
Report Text: KLXY 281215Z AUTO 16003KT 10SM CLR 03/00 A3031 RMK AO2 T00330003
Loading
Personal Weather Stations






























Interactive Weather Map New forecast layout! Learn more

10-Day Weather Forecast

Advertisements
Track Severe Weather on mobile